Time;durP1;ratioP1;P1;durP2;ratioP2;P2;SDS_P1;SDS_P2;PMS_P1;PMS_P2;Temp;Humidity;BMP_temperature;BMP_pressure;BME280_temperature;BME280_humidity;BME280_pressure;Samples;Min_cycle;Max_cycle;Signal;HPM_P1;HPM_P2
2024/01/18 01:07:03;;;;;;;1.13;1.03;;;;;;;10.09;100.00;97492.69;4934791;28;20783;-79
2024/01/18 01:09:29;;;;;;;2.20;0.97;;;;;;;10.13;100.00;97505.41;4945729;28;20196;-78
2024/01/18 01:11:54;;;;;;;8.97;8.17;;;;;;;8.73;100.00;97518.22;4948684;28;20355;-78
2024/01/18 01:14:20;;;;;;;9.90;9.10;;;;;;;7.51;100.00;97526.84;4948794;28;20199;-78
2024/01/18 01:16:45;;;;;;;10.27;9.37;;;;;;;7.12;100.00;97538.69;4926811;28;20696;-78
2024/01/18 01:19:11;;;;;;;9.50;8.70;;;;;;;6.39;100.00;97547.38;4943880;28;20989;-78
2024/01/18 01:21:36;;;;;;;10.67;9.77;;;;;;;5.93;100.00;97559.22;4929811;29;20201;-77
2024/01/18 01:24:02;;;;;;;11.40;10.33;;;;;;;5.83;100.00;97574.09;4943877;28;20285;-78
2024/01/18 01:26:28;;;;;;;12.53;11.43;;;;;;;5.52;100.00;97581.97;4947130;28;20221;-77
2024/01/18 01:28:53;;;;;;;15.13;13.73;;;;;;;5.22;100.00;97593.13;4942878;29;20263;-77
2024/01/18 01:31:19;;;;;;;13.70;12.50;;;;;;;5.01;100.00;97602.31;4933120;28;20205;-78
2024/01/18 01:33:44;;;;;;;12.37;11.27;;;;;;;4.56;100.00;97604.44;4946808;29;20586;-79
2024/01/18 01:36:10;;;;;;;12.80;11.60;;;;;;;4.31;100.00;97608.56;4927858;29;20703;-78
2024/01/18 01:38:35;;;;;;;11.93;10.83;;;;;;;4.03;100.00;97611.81;4940007;28;20202;-78
2024/01/18 01:41:02;;;;;;;11.23;10.23;;;;;;;3.92;100.00;97620.63;4944228;29;20191;-78
2024/01/18 01:43:27;;;;;;;11.37;10.27;;;;;;;3.83;100.00;97632.78;4942444;29;20217;-78
2024/01/18 01:45:53;;;;;;;10.40;9.40;;;;;;;3.88;100.00;97613.06;4924486;29;20705;-78
2024/01/18 01:48:19;;;;;;;10.20;9.30;;;;;;;3.86;100.00;97619.94;4941796;28;20195;-78
2024/01/18 01:50:46;;;;;;;9.10;8.20;;;;;;;3.87;100.00;97625.00;4947595;29;20191;-77
2024/01/18 01:53:14;;;;;;;8.33;7.53;;;;;;;3.91;100.00;97625.78;4945266;29;20591;-78
2024/01/18 01:55:40;;;;;;;9.63;8.50;;;;;;;3.86;100.00;97627.59;4945702;28;20219;-76
2024/01/18 01:58:06;;;;;;;10.67;9.67;;;;;;;3.80;100.00;97628.59;4946065;29;20195;-79
2024/01/18 02:00:32;;;;;;;10.57;9.50;;;;;;;3.75;100.00;97638.94;4931734;29;20313;-78
2024/01/18 02:02:58;;;;;;;10.53;9.53;;;;;;;3.75;100.00;97641.50;4928173;29;20191;-78
2024/01/18 02:05:23;;;;;;;12.87;10.00;;;;;;;3.76;100.00;97648.31;4916193;29;20218;-78
2024/01/18 02:07:49;;;;;;;13.43;12.03;;;;;;;3.66;100.00;97646.81;4915559;29;20195;-77
2024/01/18 02:10:14;;;;;;;15.97;13.40;;;;;;;3.48;100.00;97653.22;4922700;29;20192;-76
2024/01/18 02:12:40;;;;;;;21.30;16.47;;;;;;;3.48;100.00;97655.78;4912318;29;20246;-76
2024/01/18 02:15:06;;;;;;;19.47;16.57;;;;;;;3.36;100.00;97656.88;4927217;29;20220;-76
2024/01/18 02:17:32;;;;;;;18.03;16.07;;;;;;;3.40;100.00;97666.16;4910176;29;22361;-76
2024/01/18 02:19:57;;;;;;;28.57;19.17;;;;;;;3.09;100.00;97659.16;4929197;29;20311;-75
2024/01/18 02:22:26;;;;;;;34.37;19.83;;;;;;;2.97;100.00;97644.09;4912818;29;20198;-75
2024/01/18 02:24:55;;;;;;;29.27;20.20;;;;;;;3.02;100.00;97640.56;4926208;29;20242;-76
2024/01/18 02:27:20;;;;;;;49.77;27.03;;;;;;;3.18;100.00;97630.00;4928479;29;20218;-75
2024/01/18 02:29:47;;;;;;;31.70;21.87;;;;;;;3.00;100.00;97656.81;4925174;29;20203;-75
2024/01/18 02:32:12;;;;;;;68.17;28.03;;;;;;;2.80;100.00;97654.66;4927522;29;20208;-76
2024/01/18 02:34:39;;;;;;;37.10;25.63;;;;;;;2.98;100.00;97646.59;4928492;29;21038;-75
2024/01/18 02:37:05;;;;;;;50.70;29.77;;;;;;;3.19;100.00;97647.03;4927346;29;20321;-75
2024/01/18 02:39:31;;;;;;;44.13;28.23;;;;;;;3.06;100.00;97654.13;4911544;29;20227;-74
2024/01/18 02:41:56;;;;;;;34.03;24.63;;;;;;;3.16;100.00;97675.22;4927482;29;22158;-75
2024/01/18 02:44:24;;;;;;;67.57;28.57;;;;;;;2.69;100.00;97637.00;4911131;29;20306;-75
2024/01/18 02:46:50;;;;;;;30.10;21.97;;;;;;;3.12;100.00;97676.13;4926590;29;20199;-74
2024/01/18 02:49:15;;;;;;;23.43;18.93;;;;;;;3.07;100.00;97677.97;4925761;29;20251;-74
2024/01/18 02:51:41;;;;;;;31.77;21.50;;;;;;;2.75;100.00;97659.84;4929212;29;20219;-75
2024/01/18 02:54:06;;;;;;;44.70;24.83;;;;;;;2.80;100.00;97663.16;4928606;29;20203;-75
2024/01/18 02:56:31;;;;;;;29.57;20.00;;;;;;;2.62;100.00;97674.59;4928796;29;20219;-75
2024/01/18 02:58:56;;;;;;;32.47;20.37;;;;;;;2.37;100.00;97661.44;4925536;29;20574;-75
2024/01/18 03:01:22;;;;;;;30.80;20.40;;;;;;;2.44;100.00;97668.09;4929004;29;20268;-75
2024/01/18 03:03:47;;;;;;;29.13;20.27;;;;;;;2.55;100.00;97666.19;4930724;29;20632;-75
2024/01/18 03:06:13;;;;;;;39.70;23.73;;;;;;;2.37;100.00;97667.38;4930386;29;20219;-75
2024/01/18 03:08:38;;;;;;;43.13;23.13;;;;;;;2.36;100.00;97663.13;4932019;29;20192;-75
2024/01/18 03:11:04;;;;;;;46.60;24.20;;;;;;;2.26;100.00;97665.03;4930759;29;20215;-75
2024/01/18 03:13:29;;;;;;;57.20;25.13;;;;;;;2.33;100.00;97668.31;4937220;29;20215;-75
2024/01/18 03:15:54;;;;;;;43.80;24.70;;;;;;;2.31;100.00;97661.53;4926833;29;20221;-74
2024/01/18 03:18:20;;;;;;;29.13;21.40;;;;;;;2.40;100.00;97674.16;4925526;29;20331;-75
2024/01/18 03:20:45;;;;;;;36.17;22.97;;;;;;;2.22;100.00;97665.94;4912846;29;20282;-75
2024/01/18 03:23:11;;;;;;;35.60;24.63;;;;;;;2.41;100.00;97676.66;4926777;29;20192;-75
2024/01/18 03:25:37;;;;;;;31.10;22.30;;;;;;;2.25;100.00;97672.69;4928586;29;20247;-75
2024/01/18 03:28:02;;;;;;;32.97;22.00;;;;;;;2.17;100.00;97685.59;4920008;29;20315;-75
2024/01/18 03:30:28;;;;;;;28.53;21.60;;;;;;;2.13;100.00;97660.97;4927150;29;20215;-75
2024/01/18 03:32:53;;;;;;;30.77;23.57;;;;;;;2.07;100.00;97669.59;4926242;29;20208;-75
2024/01/18 03:35:18;;;;;;;37.93;24.53;;;;;;;2.14;100.00;97657.56;4928390;29;20589;-75
2024/01/18 03:37:44;;;;;;;40.93;25.93;;;;;;;2.09;100.00;97662.75;4913946;29;21166;-75
2024/01/18 03:40:10;;;;;;;39.70;25.77;;;;;;;2.03;100.00;97660.31;4928083;29;20199;-75
2024/01/18 03:42:39;;;;;;;38.43;26.63;;;;;;;2.03;100.00;97646.69;4926811;29;20188;-75
2024/01/18 03:45:04;;;;;;;38.70;26.07;;;;;;;2.04;100.00;97648.38;4928189;29;20727;-75
2024/01/18 03:47:29;;;;;;;37.90;24.97;;;;;;;1.93;100.00;97646.88;4928733;29;20266;-75
2024/01/18 03:49:55;;;;;;;37.50;25.93;;;;;;;2.00;100.00;97645.06;4924539;29;20218;-75
2024/01/18 03:52:20;;;;;;;36.07;25.63;;;;;;;1.88;100.00;97645.28;4911088;29;20211;-76
2024/01/18 03:54:48;;;;;;;34.93;26.97;;;;;;;1.96;100.00;97649.38;4911969;29;20631;-75
2024/01/18 03:57:13;;;;;;;41.30;28.20;;;;;;;1.95;100.00;97654.47;4930311;29;20187;-75
2024/01/18 03:59:38;;;;;;;42.17;28.87;;;;;;;1.97;100.00;97642.56;4930493;29;20251;-76
2024/01/18 04:02:04;;;;;;;40.47;27.83;;;;;;;1.95;100.00;97641.72;4926199;29;20189;-76
2024/01/18 04:04:29;;;;;;;47.23;29.23;;;;;;;1.79;100.00;97647.09;4909519;29;20199;-75
2024/01/18 04:06:55;;;;;;;51.93;30.50;;;;;;;1.85;100.00;97646.13;4923497;29;20204;-75
2024/01/18 04:09:20;;;;;;;62.33;33.80;;;;;;;1.69;100.00;97640.47;4923889;29;20283;-75
2024/01/18 04:11:45;;;;;;;49.47;31.67;;;;;;;1.83;100.00;97623.22;4923949;29;20222;-75
2024/01/18 04:14:11;;;;;;;45.60;32.30;;;;;;;1.72;100.00;97617.47;4906096;29;20577;-75
2024/01/18 04:16:37;;;;;;;55.03;31.50;;;;;;;1.76;100.00;97625.91;4926454;29;20243;-75
2024/01/18 04:19:03;;;;;;;51.80;30.80;;;;;;;1.70;100.00;97626.00;4925331;29;20192;-75
2024/01/18 04:21:28;;;;;;;46.90;30.83;;;;;;;1.71;100.00;97651.47;4924537;29;20191;-76
2024/01/18 04:23:56;;;;;;;48.17;30.37;;;;;;;1.81;100.00;97663.22;4909484;29;20219;-76
2024/01/18 04:26:22;;;;;;;54.90;30.07;;;;;;;1.77;100.00;97653.09;4926544;29;20218;-75
2024/01/18 04:28:47;;;;;;;59.33;32.50;;;;;;;1.85;100.00;97665.72;4921646;29;20214;-75
2024/01/18 04:31:12;;;;;;;61.67;34.07;;;;;;;1.81;100.00;97663.22;4926005;29;20210;-76
2024/01/18 04:33:37;;;;;;;78.17;40.67;;;;;;;1.68;100.00;97662.53;4912192;29;20215;-75
2024/01/18 04:36:03;;;;;;;94.13;43.80;;;;;;;1.68;100.00;97659.16;4927709;29;20214;-76
2024/01/18 04:38:28;;;;;;;92.90;45.67;;;;;;;1.72;100.00;97673.56;4926218;29;20214;-75
2024/01/18 04:40:54;;;;;;;97.13;45.50;;;;;;;1.78;100.00;97673.44;4925403;29;20195;-76
2024/01/18 04:43:19;;;;;;;89.93;43.70;;;;;;;1.77;100.00;97696.44;4927633;29;20693;-75
2024/01/18 04:45:45;;;;;;;86.80;44.23;;;;;;;1.83;100.00;97701.44;4927263;29;20306;-75
2024/01/18 04:48:10;;;;;;;95.57;46.03;;;;;;;1.61;100.00;97714.50;4924566;29;20668;-75
2024/01/18 04:50:35;;;;;;;106.40;48.73;;;;;;;1.76;100.00;97731.28;4909116;29;20578;-75
2024/01/18 04:53:01;;;;;;;97.93;46.90;;;;;;;1.69;100.00;97727.16;4926697;29;20625;-75
2024/01/18 04:55:26;;;;;;;121.93;51.00;;;;;;;1.42;100.00;97719.03;4910038;29;20603;-75
2024/01/18 04:57:52;;;;;;;124.70;51.53;;;;;;;1.42;100.00;97728.38;4927225;29;20202;-74
2024/01/18 05:00:17;;;;;;;148.43;56.00;;;;;;;1.30;100.00;97722.56;4908673;29;20590;-74
2024/01/18 05:02:44;;;;;;;155.43;59.43;;;;;;;1.46;100.00;97730.84;4909133;29;20699;-75
2024/01/18 05:05:11;;;;;;;140.93;57.63;;;;;;;1.45;100.00;97723.22;4922563;29;20211;-75
2024/01/18 05:07:37;;;;;;;114.53;53.27;;;;;;;1.32;100.00;97722.53;4907713;29;20233;-75
2024/01/18 05:10:05;;;;;;;140.73;54.73;;;;;;;1.34;100.00;97723.38;4925580;29;20209;-75
2024/01/18 05:12:31;;;;;;;125.17;52.00;;;;;;;1.21;100.00;97735.44;4923954;29;20214;-73
2024/01/18 05:14:56;;;;;;;108.63;50.03;;;;;;;1.15;100.00;97722.78;4925399;29;20239;-75
2024/01/18 05:17:21;;;;;;;110.87;48.50;;;;;;;1.05;100.00;97734.75;4911884;29;20287;-75
2024/01/18 05:19:47;;;;;;;163.90;60.30;;;;;;;1.10;100.00;97733.03;4924784;29;20196;-75
2024/01/18 05:22:13;;;;;;;99.53;45.20;;;;;;;1.19;100.00;97739.72;4924916;29;20210;-75
2024/01/18 05:24:38;;;;;;;110.93;47.53;;;;;;;1.17;100.00;97721.03;4923172;29;20231;-75
2024/01/18 05:27:05;;;;;;;122.67;47.90;;;;;;;1.13;100.00;97721.94;4925844;29;20191;-75
2024/01/18 05:29:31;;;;;;;110.40;46.47;;;;;;;0.97;100.00;97723.84;4927189;29;20191;-75
2024/01/18 05:31:56;;;;;;;115.43;47.47;;;;;;;0.88;100.00;97728.16;4924149;29;20211;-75
2024/01/18 05:34:22;;;;;;;146.83;52.77;;;;;;;0.96;100.00;97724.69;4907622;29;20191;-75
2024/01/18 05:36:47;;;;;;;144.87;54.93;;;;;;;1.01;100.00;97730.56;4926758;29;20234;-76
2024/01/18 05:39:13;;;;;;;138.63;54.23;;;;;;;0.94;100.00;97721.31;4928753;29;20234;-76
2024/01/18 05:41:38;;;;;;;153.23;52.93;;;;;;;0.98;100.00;97711.06;4924825;29;20194;-75
2024/01/18 05:44:04;;;;;;;140.97;51.07;;;;;;;0.96;100.00;97709.41;4928785;29;20679;-75
2024/01/18 05:46:30;;;;;;;147.63;52.17;;;;;;;0.94;100.00;97708.59;4922823;29;20796;-76
2024/01/18 05:48:55;;;;;;;151.13;53.33;;;;;;;0.95;100.00;97702.63;4928684;29;20276;-73
2024/01/18 05:51:20;;;;;;;168.77;58.33;;;;;;;0.96;100.00;97707.69;4929764;29;20196;-74
2024/01/18 05:53:45;;;;;;;187.00;61.00;;;;;;;0.86;100.00;97704.41;4929994;29;20187;-78
2024/01/18 05:56:11;;;;;;;158.37;59.73;;;;;;;0.99;100.00;97700.03;4930416;29;20610;-75
2024/01/18 05:58:36;;;;;;;195.60;63.73;;;;;;;0.73;100.00;97701.19;4929797;29;20258;-76
2024/01/18 06:01:01;;;;;;;150.80;57.90;;;;;;;1.05;100.00;97697.41;4929471;29;20283;-76
2024/01/18 06:03:27;;;;;;;143.97;53.90;;;;;;;0.99;100.00;97709.34;4929432;29;20476;-76
2024/01/18 06:05:53;;;;;;;145.80;51.67;;;;;;;0.92;100.00;97713.69;4928004;29;20219;-76
2024/01/18 06:08:19;;;;;;;164.73;54.33;;;;;;;0.86;100.00;97721.41;4928207;29;20201;-76
2024/01/18 06:10:44;;;;;;;130.77;49.47;;;;;;;1.00;100.00;97716.13;4922817;29;20196;-76
2024/01/18 06:13:09;;;;;;;151.80;53.33;;;;;;;0.85;100.00;97701.91;4929091;29;20765;-76
2024/01/18 06:15:35;;;;;;;130.90;48.93;;;;;;;0.92;100.00;97698.41;4927555;29;20215;-75
2024/01/18 06:18:03;;;;;;;164.57;52.23;;;;;;;0.74;100.00;97714.75;4928478;29;20191;-75
2024/01/18 06:20:29;;;;;;;117.50;46.87;;;;;;;1.07;100.00;97717.75;4929922;29;20194;-76
2024/01/18 06:22:55;;;;;;;122.70;49.00;;;;;;;0.95;100.00;97700.09;4931573;29;20183;-76
2024/01/18 06:25:20;;;;;;;159.87;52.57;;;;;;;0.85;100.00;97689.16;4928820;29;20242;-75
2024/01/18 06:27:45;;;;;;;121.70;47.10;;;;;;;0.90;100.00;97689.97;4912346;29;20708;-75
2024/01/18 06:30:12;;;;;;;145.83;54.13;;;;;;;0.87;100.00;97707.81;4916786;29;20881;-75
2024/01/18 06:32:37;;;;;;;160.17;56.03;;;;;;;0.97;100.00;97691.56;4926576;29;20222;-75
2024/01/18 06:35:03;;;;;;;137.10;51.63;;;;;;;0.87;100.00;97670.44;4934384;29;22140;-76
2024/01/18 06:37:28;;;;;;;147.13;54.83;;;;;;;0.82;100.00;97697.69;4929703;29;20203;-75
2024/01/18 06:39:54;;;;;;;105.70;46.17;;;;;;;0.82;100.00;97702.78;4927319;29;20203;-76
2024/01/18 06:42:20;;;;;;;164.43;57.87;;;;;;;0.87;100.00;97705.28;4924273;29;20191;-76
2024/01/18 06:44:46;;;;;;;138.37;54.83;;;;;;;0.90;100.00;97707.78;4925453;29;20207;-74
2024/01/18 06:47:11;;;;;;;146.37;57.47;;;;;;;0.88;100.00;97710.34;4910649;29;20194;-76
2024/01/18 06:49:36;;;;;;;144.37;56.50;;;;;;;0.86;100.00;97711.22;4925447;29;20222;-75
2024/01/18 06:52:02;;;;;;;166.37;59.20;;;;;;;0.94;100.00;97734.06;4921488;29;20320;-75
2024/01/18 06:54:27;;;;;;;199.50;64.47;;;;;;;0.87;100.00;97738.38;4937157;29;20201;-75
2024/01/18 06:56:53;;;;;;;191.30;62.90;;;;;;;0.76;100.00;97726.59;4908246;29;20957;-76
2024/01/18 06:59:18;;;;;;;165.67;61.07;;;;;;;0.74;100.00;97712.19;4926400;29;20628;-75
2024/01/18 07:01:43;;;;;;;159.03;55.33;;;;;;;0.75;100.00;97727.47;4929531;29;20199;-75
2024/01/18 07:04:09;;;;;;;155.27;55.47;;;;;;;0.70;100.00;97710.53;4924686;29;20183;-75
2024/01/18 07:06:34;;;;;;;189.43;59.17;;;;;;;0.66;100.00;97724.19;4913211;29;20285;-75
2024/01/18 07:08:59;;;;;;;175.00;58.07;;;;;;;0.67;100.00;97733.50;4928435;29;20713;-75
2024/01/18 07:11:24;;;;;;;167.73;54.37;;;;;;;0.75;100.00;97739.34;4926676;29;20202;-76
2024/01/18 07:13:50;;;;;;;113.90;45.70;;;;;;;0.74;100.00;97735.09;4924068;29;20240;-76
2024/01/18 07:16:15;;;;;;;130.67;47.80;;;;;;;0.70;100.00;97736.84;4921275;29;20218;-74
2024/01/18 07:18:40;;;;;;;128.53;48.87;;;;;;;0.70;100.00;97734.31;4921405;29;20669;-77
2024/01/18 07:21:06;;;;;;;144.23;52.17;;;;;;;0.71;100.00;97748.72;4921306;29;20288;-75
2024/01/18 07:23:31;;;;;;;141.50;49.93;;;;;;;0.72;100.00;97745.31;4920204;29;20194;-75
2024/01/18 07:25:56;;;;;;;144.40;50.77;;;;;;;0.67;100.00;97764.88;4918300;29;20222;-75
2024/01/18 07:28:22;;;;;;;134.50;48.00;;;;;;;0.72;100.00;97767.38;4926469;29;20258;-76
2024/01/18 07:30:47;;;;;;;113.43;46.47;;;;;;;0.65;100.00;97763.22;4911248;29;20303;-76
2024/01/18 07:33:12;;;;;;;134.20;47.93;;;;;;;0.49;100.00;97765.03;4925783;29;20233;-75
2024/01/18 07:35:38;;;;;;;131.43;48.70;;;;;;;0.55;100.00;97768.38;4929370;29;20631;-76
2024/01/18 07:38:03;;;;;;;119.27;45.80;;;;;;;0.56;100.00;97766.69;4928022;29;20270;-76
2024/01/18 07:40:29;;;;;;;124.17;46.20;;;;;;;0.50;100.00;97752.31;4927861;29;20191;-76
2024/01/18 07:42:54;;;;;;;140.33;50.27;;;;;;;0.52;100.00;97755.69;4923771;29;20210;-75
2024/01/18 07:45:20;;;;;;;125.33;49.03;;;;;;;0.59;100.00;97764.94;4924848;29;20215;-76
2024/01/18 07:47:46;;;;;;;132.10;49.40;;;;;;;0.54;100.00;97750.59;4930541;29;20189;-76
2024/01/18 07:50:12;;;;;;;114.40;47.40;;;;;;;0.54;100.00;97763.31;4927947;29;21973;-76
2024/01/18 07:52:38;;;;;;;148.80;53.77;;;;;;;0.45;100.00;97761.69;4906720;29;20752;-77
2024/01/18 07:55:06;;;;;;;159.33;56.17;;;;;;;0.49;100.00;97773.53;4927435;29;20207;-76
2024/01/18 07:57:32;;;;;;;112.53;45.73;;;;;;;0.53;100.00;97780.25;4911805;29;20270;-77
2024/01/18 07:59:57;;;;;;;149.03;54.27;;;;;;;0.55;100.00;97778.56;4927215;29;20312;-77
2024/01/18 08:02:22;;;;;;;130.07;52.87;;;;;;;0.55;100.00;97788.72;4926659;29;20246;-77
2024/01/18 08:04:48;;;;;;;155.57;60.67;;;;;;;0.41;100.00;97803.28;4923522;29;20236;-76
2024/01/18 08:07:15;;;;;;;125.20;48.67;;;;;;;0.44;100.00;97803.25;4927028;29;20229;-76
2024/01/18 08:09:40;;;;;;;190.33;61.57;;;;;;;0.42;100.00;97808.38;4926663;29;20266;-77
2024/01/18 08:12:06;;;;;;;147.87;55.23;;;;;;;0.55;100.00;97814.19;4926098;29;20214;-76
2024/01/18 08:14:32;;;;;;;156.43;58.40;;;;;;;0.57;100.00;97822.66;4907918;29;20195;-77
2024/01/18 08:16:57;;;;;;;149.40;55.93;;;;;;;0.59;100.00;97832.84;4930835;29;20223;-76
2024/01/18 08:19:23;;;;;;;153.47;59.60;;;;;;;0.62;100.00;97829.41;4909954;29;20607;-77
2024/01/18 08:21:48;;;;;;;155.63;56.57;;;;;;;0.62;100.00;97825.16;4910951;29;20257;-76
2024/01/18 08:24:14;;;;;;;192.43;67.73;;;;;;;0.54;100.00;97832.03;4924720;29;21053;-76
2024/01/18 08:26:40;;;;;;;165.00;61.77;;;;;;;0.63;100.00;97854.00;4912228;29;20211;-76
2024/01/18 08:29:05;;;;;;;141.97;52.97;;;;;;;0.65;100.00;97853.13;4929246;29;20281;-77
2024/01/18 08:31:31;;;;;;;131.80;52.63;;;;;;;0.47;100.00;97853.28;4914610;29;20651;-76
2024/01/18 08:33:56;;;;;;;170.07;58.07;;;;;;;0.36;100.00;97869.47;4928368;29;20203;-76
2024/01/18 08:36:21;;;;;;;117.80;48.60;;;;;;;0.35;100.00;97877.13;4927938;29;20221;-77
2024/01/18 08:38:47;;;;;;;115.67;49.83;;;;;;;0.28;100.00;97866.97;4927677;29;20232;-77
2024/01/18 08:41:12;;;;;;;123.87;51.13;;;;;;;0.20;100.00;97878.91;4911833;29;20573;-77
2024/01/18 08:43:37;;;;;;;143.80;54.27;;;;;;;0.30;100.00;97872.06;4927481;29;20205;-77
2024/01/18 08:46:06;;;;;;;165.80;58.87;;;;;;;0.37;100.00;97890.69;4926407;29;20233;-77
2024/01/18 08:48:38;;;;;;;192.10;60.77;;;;;;;0.16;100.00;97892.50;4928602;29;20209;-77
2024/01/18 08:51:04;;;;;;;187.37;66.27;;;;;;;0.42;100.00;97896.56;4923156;29;20197;-77
2024/01/18 08:53:30;;;;;;;142.23;56.83;;;;;;;0.48;100.00;97894.00;4928644;29;20215;-77
2024/01/18 08:55:56;;;;;;;161.50;56.43;;;;;;;0.42;100.00;97888.94;4924659;29;20217;-78
2024/01/18 08:58:21;;;;;;;148.60;59.37;;;;;;;0.52;100.00;97908.41;4928970;29;20549;-77
2024/01/18 09:00:46;;;;;;;102.57;46.50;;;;;;;0.25;100.00;97910.25;4928415;29;20931;-77
2024/01/18 09:03:12;;;;;;;128.53;49.53;;;;;;;0.25;100.00;97917.88;4928468;29;20199;-76
2024/01/18 09:05:37;;;;;;;105.27;45.40;;;;;;;0.22;100.00;97909.41;4924969;29;20232;-77
2024/01/18 09:08:03;;;;;;;131.07;51.07;;;;;;;0.20;100.00;97929.78;4922996;29;20203;-76
2024/01/18 09:10:29;;;;;;;110.87;48.77;;;;;;;0.25;100.00;97943.31;4923739;29;20907;-77
2024/01/18 09:12:55;;;;;;;129.80;53.57;;;;;;;0.35;100.00;97944.09;4917535;29;21000;-77
2024/01/18 09:15:22;;;;;;;147.37;55.10;;;;;;;0.32;100.00;97950.91;4927756;29;20219;-77
2024/01/18 09:17:47;;;;;;;149.00;53.23;;;;;;;0.36;100.00;97968.69;4929295;29;20202;-77
2024/01/18 09:20:12;;;;;;;109.23;45.27;;;;;;;0.39;100.00;97972.91;4929598;29;20202;-77
2024/01/18 09:22:39;;;;;;;117.63;50.30;;;;;;;0.25;100.00;97986.56;4933198;29;20274;-77
2024/01/18 09:25:04;;;;;;;119.47;50.13;;;;;;;0.23;100.00;98005.22;4916688;29;20308;-77
2024/01/18 09:27:29;;;;;;;126.73;52.80;;;;;;;0.13;100.00;98019.69;4932756;29;20205;-77
2024/01/18 09:29:55;;;;;;;102.53;46.70;;;;;;;0.13;100.00;98035.81;4935087;29;20208;-77
2024/01/18 09:32:20;;;;;;;94.37;42.47;;;;;;;0.09;100.00;98041.75;4932146;29;20282;-77
2024/01/18 09:34:45;;;;;;;91.57;41.13;;;;;;;-0.08;100.00;98056.19;4933921;29;20233;-77
2024/01/18 09:37:10;;;;;;;91.20;39.33;;;;;;;-0.19;100.00;98061.28;4915598;29;20189;-77
2024/01/18 09:39:36;;;;;;;81.20;36.80;;;;;;;-0.38;100.00;98068.94;4931951;29;20284;-77
2024/01/18 09:42:06;;;;;;;107.67;40.37;;;;;;;-0.49;100.00;98063.88;4922573;29;20556;-77
2024/01/18 09:44:32;;;;;;;113.37;45.93;;;;;;;-0.52;100.00;98063.00;4914922;29;20200;-77
2024/01/18 09:46:58;;;;;;;105.17;41.93;;;;;;;-0.55;100.00;98070.66;4933887;29;20197;-77
2024/01/18 09:49:25;;;;;;;83.53;38.83;;;;;;;-0.64;100.00;98074.88;4933766;29;20752;-77
2024/01/18 09:51:51;;;;;;;84.30;37.20;;;;;;;-0.69;100.00;98088.41;4934685;29;20220;-78
2024/01/18 09:54:17;;;;;;;73.90;36.33;;;;;;;-0.76;100.00;98087.56;4934176;29;20190;-77
2024/01/18 09:56:45;;;;;;;90.63;38.90;;;;;;;-0.77;100.00;98096.03;4929095;29;20306;-77
2024/01/18 09:59:18;;;;;;;79.17;37.33;;;;;;;-0.77;100.00;98101.13;4933669;29;20724;-78
2024/01/18 10:01:44;;;;;;;76.17;35.37;;;;;;;-0.73;100.00;98102.81;4931839;29;20189;-78
2024/01/18 10:04:12;;;;;;;88.83;38.20;;;;;;;-0.68;100.00;98111.28;4933289;29;20786;-78
2024/01/18 10:06:38;;;;;;;82.70;40.03;;;;;;;-0.59;100.00;98112.13;4927268;29;20800;-76
2024/01/18 10:09:05;;;;;;;82.77;36.53;;;;;;;-0.63;100.00;98104.50;4928734;29;20221;-76
2024/01/18 10:11:31;;;;;;;72.20;34.70;;;;;;;-0.69;100.00;98119.75;4931590;29;20193;-78
2024/01/18 10:13:57;;;;;;;90.40;36.73;;;;;;;-0.56;100.00;98120.59;4929563;29;20751;-78
2024/01/18 10:16:29;;;;;;;66.53;31.10;;;;;;;-0.62;100.00;98118.91;4915318;29;20257;-78
2024/01/18 10:19:00;;;;;;;62.77;30.97;;;;;;;-0.63;100.00;98119.75;4928380;29;20196;-77
2024/01/18 10:21:26;;;;;;;69.57;30.63;;;;;;;-0.59;100.00;98135.84;4914831;29;20191;-76
2024/01/18 10:23:53;;;;;;;59.30;30.17;;;;;;;-0.49;100.00;98137.56;4925100;29;20203;-78
2024/01/18 10:26:19;;;;;;;88.10;34.40;;;;;;;-0.51;100.00;98143.47;4929002;29;20286;-78
2024/01/18 10:28:44;;;;;;;90.20;35.30;;;;;;;-0.43;100.00;98168.88;4927798;29;20188;-78
2024/01/18 10:31:09;;;;;;;69.13;32.67;;;;;;;-0.51;100.00;98159.59;4928898;29;20271;-80
2024/01/18 10:33:35;;;;;;;86.03;36.77;;;;;;;-0.47;100.00;98165.50;4912422;29;20213;-79
2024/01/18 10:36:01;;;;;;;79.53;35.90;;;;;;;-0.46;100.00;98174.81;4928956;29;20427;-78
2024/01/18 10:38:29;;;;;;;68.73;33.17;;;;;;;-0.58;100.00;98159.56;4928908;29;20197;-77
2024/01/18 10:40:57;;;;;;;104.50;37.30;;;;;;;-0.52;100.00;98182.44;4932443;29;20201;-76
2024/01/18 10:43:30;;;;;;;80.17;36.50;;;;;;;-0.39;100.00;98189.25;4906578;29;20182;-79
2024/01/18 10:45:55;;;;;;;77.23;36.13;;;;;;;-0.49;100.00;98185.84;4930909;29;20649;-77
2024/01/18 10:48:21;;;;;;;110.03;39.63;;;;;;;-0.48;100.00;98195.16;4931391;29;20269;-77
2024/01/18 10:50:51;;;;;;;105.87;40.30;;;;;;;-0.36;100.00;98212.09;4928754;29;20195;-79
2024/01/18 10:53:16;;;;;;;103.00;38.23;;;;;;;-0.44;100.00;98218.03;4915565;29;20651;-79
2024/01/18 10:55:42;;;;;;;90.73;38.70;;;;;;;-0.34;100.00;98219.75;4909182;29;20250;-79
2024/01/18 10:58:08;;;;;;;87.30;35.73;;;;;;;-0.34;100.00;98235.84;4925958;29;20201;-80
2024/01/18 11:00:34;;;;;;;124.00;43.00;;;;;;;-0.40;100.00;98233.31;4930201;29;20193;-79
2024/01/18 11:03:00;;;;;;;123.37;43.53;;;;;;;-0.34;100.00;98243.47;4914174;29;20186;-77
2024/01/18 11:05:27;;;;;;;96.77;39.80;;;;;;;-0.32;100.00;98248.56;4928696;29;20589;-77
2024/01/18 11:07:53;;;;;;;122.27;43.97;;;;;;;-0.39;100.00;98262.09;4929633;29;20208;-77
2024/01/18 11:10:18;;;;;;;87.40;36.30;;;;;;;-0.35;100.00;98261.25;4917238;29;20187;-78
2024/01/18 11:12:49;;;;;;;90.20;37.33;;;;;;;-0.26;100.00;98278.22;4913489;29;20276;-76
2024/01/18 11:15:16;;;;;;;65.37;31.43;;;;;;;-0.23;100.00;98283.31;4917816;29;20253;-78
2024/01/18 11:17:48;;;;;;;84.03;34.43;;;;;;;-0.36;100.00;98284.97;4931306;29;20190;-77
2024/01/18 11:20:15;;;;;;;66.67;32.43;;;;;;;-0.22;100.00;98290.09;4930066;29;20196;-78
2024/01/18 11:22:41;;;;;;;76.80;34.83;;;;;;;-0.22;100.00;98290.09;4916372;29;20198;-78
2024/01/18 11:25:09;;;;;;;78.97;36.53;;;;;;;-0.25;100.00;98295.19;4927706;29;20301;-76
2024/01/18 11:27:38;;;;;;;95.43;38.13;;;;;;;-0.23;100.00;98293.50;4927215;29;20198;-77
2024/01/18 11:30:10;;;;;;;75.73;34.00;;;;;;;-0.26;100.00;98303.66;4928631;29;20618;-77
2024/01/18 11:32:37;;;;;;;84.47;36.57;;;;;;;-0.28;100.00;98302.78;4927567;29;20271;-76
2024/01/18 11:35:15;;;;;;;82.23;36.87;;;;;;;-0.32;100.00;98315.50;4927877;29;20300;-78
2024/01/18 11:37:40;;;;;;;111.97;40.60;;;;;;;-0.37;100.00;98321.41;4929170;29;20199;-79
2024/01/18 11:40:10;;;;;;;79.87;37.73;;;;;;;-0.21;100.00;98335.00;4930927;29;20193;-78
2024/01/18 11:42:38;;;;;;;125.37;46.53;;;;;;;-0.20;100.00;98341.78;4930408;29;20179;-76
2024/01/18 11:45:17;;;;;;;112.87;42.00;;;;;;;-0.26;100.00;98345.16;4925040;29;20818;-77
2024/01/18 11:47:44;;;;;;;87.57;38.83;;;;;;;-0.14;100.00;98341.81;4930129;29;20193;-77
2024/01/18 11:50:13;;;;;;;107.23;40.87;;;;;;;-0.32;100.00;98348.53;4930312;29;20190;-78
2024/01/18 11:52:41;;;;;;;84.50;39.33;;;;;;;-0.18;100.00;98355.34;4922788;29;20222;-76
2024/01/18 11:55:07;;;;;;;93.73;41.17;;;;;;;-0.14;100.00;98363.84;4928822;29;20229;-80
2024/01/18 11:57:33;;;;;;;109.23;43.70;;;;;;;-0.15;100.00;98373.16;4929932;29;20215;-77
2024/01/18 11:59:59;;;;;;;89.57;39.67;;;;;;;0.00;100.00;98377.47;4930034;29;20221;-79
2024/01/18 12:02:28;;;;;;;118.63;43.73;;;;;;;-0.03;100.00;98374.91;4928066;29;20638;-75
2024/01/18 12:04:53;;;;;;;146.57;73.30;;;;;;;-0.21;100.00;98378.22;4913774;29;20933;-77
2024/01/18 12:07:20;;;;;;;116.73;42.87;;;;;;;0.05;100.00;98380.00;4933272;29;20255;-77
2024/01/18 12:09:45;;;;;;;141.73;52.57;;;;;;;-0.12;100.00;98395.19;4914285;29;20189;-79
2024/01/18 12:12:11;;;;;;;87.73;40.57;;;;;;;0.07;100.00;98396.97;4929326;29;21004;-78